Time;durP1;ratioP1;P1;durP2;ratioP2;P2;SDS_P1;SDS_P2;PMS_P1;PMS_P2;Temp;Humidity;BMP_temperature;BMP_pressure;BME280_temperature;BME280_humidity;BME280_pressure;Samples;Min_cycle;Max_cycle;Signal;HPM_P1;HPM_P2
2023/10/02 00:01:10;;;;;;;19.48;10.75;;;;;;;17.22;100.00;101974.09;4849473;29;20052;-77
2023/10/02 00:03:39;;;;;;;20.10;10.15;;;;;;;17.21;100.00;101969.69;4868015;29;20076;-77
2023/10/02 00:06:09;;;;;;;18.73;10.07;;;;;;;17.20;100.00;101975.91;4898134;29;20048;-77
2023/10/02 00:08:42;;;;;;;27.85;11.05;;;;;;;17.20;100.00;101971.47;4876987;29;20049;-77
2023/10/02 00:11:36;;;;;;;19.70;11.18;;;;;;;17.21;100.00;101977.69;4892542;29;20063;-77
2023/10/02 00:14:18;;;;;;;21.13;11.43;;;;;;;17.21;100.00;101975.03;4885021;29;20385;-77
2023/10/02 00:17:00;;;;;;;22.30;11.60;;;;;;;17.18;100.00;101965.25;4873765;29;20693;-77
2023/10/02 00:19:35;;;;;;;23.73;10.90;;;;;;;17.18;100.00;101967.03;4879358;29;20060;-77
2023/10/02 00:22:08;;;;;;;21.35;11.65;;;;;;;17.19;100.00;101976.81;4879709;29;20040;-77
2023/10/02 00:24:38;;;;;;;20.17;10.77;;;;;;;17.17;100.00;101970.59;4874115;29;20059;-77
2023/10/02 00:27:10;;;;;;;23.20;12.43;;;;;;;17.15;100.00;101963.50;4892691;29;20044;-77
2023/10/02 00:29:51;;;;;;;19.50;11.38;;;;;;;17.15;100.00;101974.16;4869593;29;20063;-77
2023/10/02 00:32:26;;;;;;;21.13;11.93;;;;;;;17.14;100.00;101964.41;4833779;29;20045;-77
2023/10/02 00:34:53;;;;;;;21.30;11.43;;;;;;;17.14;100.00;101972.41;4851590;29;20048;-77
2023/10/02 00:37:21;;;;;;;22.60;11.02;;;;;;;17.13;100.00;101965.28;4856157;29;20051;-77
2023/10/02 00:39:51;;;;;;;23.48;11.25;;;;;;;17.12;100.00;101971.50;4856880;29;20057;-77
2023/10/02 00:44:52;;;;;;;24.13;11.63;;;;;;;17.09;100.00;101973.31;4867121;29;20512;-77
2023/10/02 00:47:38;;;;;;;;;;;;;;;17.06;100.00;101966.22;4828900;29;20048;-77
2023/10/02 00:50:11;;;;;;;22.73;11.27;;;;;;;17.05;100.00;101961.81;4862657;29;19938;-76
2023/10/02 00:52:42;;;;;;;21.40;11.85;;;;;;;17.05;100.00;101964.47;4870106;29;20417;-76
2023/10/02 00:55:17;;;;;;;;;;;;;;;17.04;100.00;101960.00;4873050;29;20049;-76
2023/10/02 00:57:45;;;;;;;23.77;12.75;;;;;;;17.03;100.00;101952.03;4870436;29;20297;-76
2023/10/02 01:00:30;;;;;;;21.67;12.18;;;;;;;17.03;100.00;101955.59;4868282;29;20049;-76
2023/10/02 01:02:59;;;;;;;21.80;11.90;;;;;;;17.02;100.00;101956.47;4799388;29;20419;-78
2023/10/02 01:05:58;;;;;;;18.77;11.80;;;;;;;17.01;100.00;101944.03;4864902;29;20075;-78
2023/10/02 01:08:46;;;;;;;22.60;11.40;;;;;;;17.01;100.00;101951.16;4858238;29;20703;-78
2023/10/02 01:11:14;;;;;;;24.60;11.45;;;;;;;17.00;100.00;101946.75;4861962;29;20053;-78
2023/10/02 01:13:42;;;;;;;22.45;12.85;;;;;;;17.00;100.00;101949.41;4878441;29;20045;-78
2023/10/02 01:16:13;;;;;;;21.88;12.43;;;;;;;16.99;100.00;101942.28;4853969;29;20059;-78
2023/10/02 01:18:41;;;;;;;23.88;12.15;;;;;;;16.98;100.00;101944.09;4844627;29;20052;-77
2023/10/02 01:21:11;;;;;;;20.23;11.85;;;;;;;16.96;100.00;101943.22;4849063;29;20059;-78
2023/10/02 01:24:07;;;;;;;20.90;12.70;;;;;;;16.95;100.00;101938.75;4842040;29;20052;-78
2023/10/02 01:26:41;;;;;;;24.20;14.07;;;;;;;16.93;100.00;101936.09;4855823;29;20052;-78
2023/10/02 01:29:13;;;;;;;21.67;12.32;;;;;;;16.93;100.00;101933.44;4889138;29;20060;-78
2023/10/02 01:31:51;;;;;;;21.58;12.63;;;;;;;16.92;100.00;101934.34;4869132;29;20043;-78
2023/10/02 01:34:39;;;;;;;25.85;13.38;;;;;;;16.90;100.00;101945.88;4837206;29;20512;-78
2023/10/02 01:37:32;;;;;;;25.85;14.10;;;;;;;16.86;100.00;101945.03;4883930;29;20059;-78
2023/10/02 01:40:28;;;;;;;28.48;13.73;;;;;;;16.84;100.00;101941.50;4894959;29;20053;-78
2023/10/02 01:42:43;;;;;;;25.10;12.50;;;;;;;16.84;100.00;101937.94;4891884;29;20053;-78
2023/10/02 01:45:11;;;;;;;25.13;13.02;;;;;;;16.83;100.00;101933.53;4889310;29;20048;-78
2023/10/02 01:47:41;;;;;;;24.73;13.68;;;;;;;16.82;100.00;101932.63;4847136;29;20060;-77
2023/10/02 01:50:09;;;;;;;23.45;13.63;;;;;;;16.82;100.00;101931.72;4888909;29;20987;-78
2023/10/02 01:52:37;;;;;;;27.27;13.55;;;;;;;16.80;100.00;101929.06;4885716;29;20421;-78
2023/10/02 01:55:29;;;;;;;28.83;13.50;;;;;;;16.78;100.00;101920.19;4889065;29;20075;-78
2023/10/02 01:58:16;;;;;;;28.77;14.70;;;;;;;16.77;100.00;101919.31;4879889;29;20057;-77
2023/10/02 02:00:47;;;;;;;24.58;13.95;;;;;;;16.74;100.00;101914.00;4889208;29;20055;-78
2023/10/02 02:03:14;;;;;;;25.00;13.18;;;;;;;16.73;100.00;101922.91;4821409;29;20041;-78
2023/10/02 02:05:44;;;;;;;23.55;13.63;;;;;;;16.72;100.00;101918.44;4881391;29;20830;-77
2023/10/02 02:08:47;;;;;;;24.88;13.43;;;;;;;16.71;100.00;101924.69;4869633;29;20048;-76
2023/10/02 02:11:15;;;;;;;22.70;12.65;;;;;;;16.70;100.00;101927.34;4874165;29;20052;-77
2023/10/02 02:13:44;;;;;;;24.23;14.20;;;;;;;16.69;100.00;101920.25;4872962;29;20492;-76
2023/10/02 02:16:15;;;;;;;27.40;14.27;;;;;;;16.67;100.00;101909.63;4878803;29;20049;-76
2023/10/02 02:18:45;;;;;;;28.38;14.48;;;;;;;16.67;100.00;101904.31;4829753;29;20430;-76
2023/10/02 02:21:17;;;;;;;23.67;13.82;;;;;;;16.65;100.00;101898.06;4905425;29;20044;-76
2023/10/02 02:23:45;;;;;;;25.40;14.05;;;;;;;16.65;100.00;101894.53;4882841;29;20067;-76
2023/10/02 02:26:21;;;;;;;23.65;13.23;;;;;;;16.64;100.00;101895.44;4904991;29;20504;-77
2023/10/02 02:28:51;;;;;;;24.75;13.52;;;;;;;16.62;100.00;101891.91;4867212;29;20071;-77
2023/10/02 02:31:31;;;;;;;25.45;14.32;;;;;;;16.62;100.00;101894.56;4862586;29;20053;-76
2023/10/02 02:34:02;;;;;;;20.40;12.55;;;;;;;16.61;100.00;101891.00;4837668;29;20497;-77
2023/10/02 02:36:35;;;;;;;;;;;;;;;16.60;100.00;101893.66;4884047;29;20067;-77
2023/10/02 02:39:16;;;;;;;24.67;13.93;;;;;;;16.59;100.00;101879.50;4875915;29;19923;-79
2023/10/02 02:41:43;;;;;;;26.80;14.23;;;;;;;16.57;100.00;101878.63;4871443;29;20092;-77
2023/10/02 02:44:35;;;;;;;25.55;14.18;;;;;;;16.56;100.00;101890.16;4877664;29;20062;-77
2023/10/02 02:46:59;;;;;;;26.20;14.30;;;;;;;16.54;100.00;101905.22;4886217;29;20049;-77
2023/10/02 02:49:29;;;;;;;26.17;13.63;;;;;;;16.53;100.00;101900.81;4845869;29;20041;-77
2023/10/02 02:51:56;;;;;;;23.55;15.13;;;;;;;16.53;100.00;101892.84;4848508;29;20071;-77
2023/10/02 02:54:25;;;;;;;24.52;14.70;;;;;;;16.53;100.00;101903.47;4864493;29;20045;-77
2023/10/02 02:57:00;;;;;;;28.85;14.88;;;;;;;16.52;100.00;101897.28;4859722;29;20493;-77
2023/10/02 02:59:28;;;;;;;28.55;14.70;;;;;;;16.51;100.00;101890.19;4849402;29;20092;-76
2023/10/02 03:02:08;;;;;;;23.23;13.48;;;;;;;16.52;100.00;101899.94;4879743;29;20449;-77
2023/10/02 03:04:40;;;;;;;27.35;15.10;;;;;;;16.51;100.00;101906.13;4831567;29;20041;-77
2023/10/02 03:07:09;;;;;;;29.88;16.73;;;;;;;16.51;100.00;101908.78;4870748;29;20056;-77
2023/10/02 03:09:36;;;;;;;21.90;14.40;;;;;;;16.50;100.00;101893.75;4857911;29;20588;-77
2023/10/02 03:12:05;;;;;;;23.40;13.57;;;;;;;16.51;100.00;101897.28;4870560;29;20041;-77
2023/10/02 03:14:34;;;;;;;25.63;14.88;;;;;;;16.51;100.00;101898.16;4877776;29;20489;-77
2023/10/02 03:17:28;;;;;;;29.25;15.05;;;;;;;16.50;100.00;101883.09;4886063;29;20057;-77
2023/10/02 03:19:49;;;;;;;27.98;14.50;;;;;;;16.50;100.00;101876.88;4855407;29;20049;-78
2023/10/02 03:22:17;;;;;;;25.92;14.27;;;;;;;16.47;100.00;101868.94;4831782;29;20516;-78
2023/10/02 03:24:45;;;;;;;27.65;15.85;;;;;;;16.44;100.00;101869.81;4855278;29;20505;-78
2023/10/02 03:27:14;;;;;;;27.45;15.18;;;;;;;16.40;100.00;101883.16;4877947;29;20060;-78
2023/10/02 03:29:42;;;;;;;26.02;14.75;;;;;;;16.36;100.00;101877.81;4883332;29;20057;-78
2023/10/02 03:32:11;;;;;;;32.75;15.23;;;;;;;16.32;100.00;101873.41;4876113;29;20056;-78
2023/10/02 03:34:40;;;;;;;28.75;15.55;;;;;;;16.27;100.00;101874.31;4890446;29;20045;-78
2023/10/02 03:39:59;;;;;;;29.00;15.13;;;;;;;16.19;100.00;101874.34;4898975;29;20082;-77
2023/10/02 03:42:33;;;;;;;28.08;15.20;;;;;;;16.15;100.00;101869.94;4888998;29;20055;-78
2023/10/02 03:45:05;;;;;;;22.80;14.48;;;;;;;16.11;100.00;101865.53;4901520;29;20044;-77
2023/10/02 03:47:35;;;;;;;29.00;14.88;;;;;;;16.10;100.00;101866.41;4876633;29;20508;-78
2023/10/02 03:50:06;;;;;;;;;;;;;;;16.08;100.00;101868.19;4879228;29;20063;-78
2023/10/02 03:52:34;;;;;;;30.08;15.80;;;;;;;16.07;100.00;101874.41;4848520;29;19939;-78
2023/10/02 03:55:26;;;;;;;28.55;15.65;;;;;;;16.06;100.00;101870.84;4879676;29;20041;-78
2023/10/02 03:57:55;;;;;;;25.60;14.55;;;;;;;16.07;100.00;101871.75;4886322;29;20052;-77
2023/10/02 04:00:42;;;;;;;25.20;15.07;;;;;;;16.05;100.00;101855.81;4894424;29;20083;-78
2023/10/02 04:03:11;;;;;;;26.55;15.75;;;;;;;16.07;100.00;101869.09;4886438;29;20045;-77
2023/10/02 04:05:45;;;;;;;25.48;15.13;;;;;;;16.07;100.00;101861.13;4892715;29;20397;-78
2023/10/02 04:08:21;;;;;;;28.65;15.88;;;;;;;16.08;100.00;101854.91;4822446;29;20053;-77
2023/10/02 04:10:55;;;;;;;31.67;19.90;;;;;;;16.06;100.00;101849.56;4892507;29;20053;-78
2023/10/02 04:13:25;;;;;;;29.77;15.50;;;;;;;16.06;100.00;101856.69;4863802;29;20712;-77
2023/10/02 04:15:53;;;;;;;29.55;15.13;;;;;;;16.05;100.00;101850.50;4894259;29;20056;-78
2023/10/02 04:21:12;;;;;;;28.23;15.48;;;;;;;16.02;100.00;101850.47;4882055;29;20059;-77
2023/10/02 04:23:42;;;;;;;30.27;16.38;;;;;;;16.02;100.00;101854.94;4843556;29;20060;-77
2023/10/02 04:26:19;;;;;;;26.52;15.80;;;;;;;16.01;100.00;101851.38;4881561;29;20045;-77
2023/10/02 04:28:55;;;;;;;29.77;15.43;;;;;;;16.01;100.00;101853.13;4879979;29;20053;-77
2023/10/02 04:31:34;;;;;;;33.28;21.98;;;;;;;16.00;100.00;101848.72;4888883;29;20044;-77
2023/10/02 04:36:44;;;;;;;28.38;16.02;;;;;;;15.98;100.00;101859.38;4878429;29;20044;-77
2023/10/02 04:42:11;;;;;;;29.17;15.73;;;;;;;15.97;100.00;101849.59;4880125;29;20424;-77
2023/10/02 04:44:44;;;;;;;;;;;;;;;15.95;100.00;101841.66;4903834;29;20052;-77
2023/10/02 04:47:19;;;;;;;29.50;13.90;;;;;;;15.95;100.00;101848.72;4914243;29;19927;-77
2023/10/02 04:55:28;;;;;;;27.80;16.10;;;;;;;15.93;100.00;101843.41;4845040;29;20044;-77
2023/10/02 04:58:03;;;;;;;27.55;16.05;;;;;;;15.93;100.00;101843.41;4895774;29;20138;-78
2023/10/02 05:00:34;;;;;;;29.30;15.85;;;;;;;15.91;100.00;101842.53;4875617;29;20060;-78
2023/10/02 05:03:18;;;;;;;34.25;17.42;;;;;;;15.90;100.00;101846.09;4872851;29;20493;-77
2023/10/02 05:05:53;;;;;;;28.63;16.05;;;;;;;15.88;100.00;101847.88;4876858;29;20205;-77
2023/10/02 05:08:34;;;;;;;30.42;15.82;;;;;;;15.86;100.00;101851.41;4870124;29;20053;-77
2023/10/02 05:11:06;;;;;;;29.17;16.08;;;;;;;15.84;100.00;101859.41;4832735;29;20052;-77
2023/10/02 05:13:44;;;;;;;27.73;14.07;;;;;;;15.80;100.00;101852.31;4882218;29;20065;-78
2023/10/02 05:16:12;;;;;;;27.40;13.32;;;;;;;15.78;100.00;101849.69;4876965;29;20051;-78
2023/10/02 05:18:44;;;;;;;22.10;12.45;;;;;;;15.75;100.00;101847.03;4884511;29;20437;-77
2023/10/02 05:21:16;;;;;;;26.95;13.05;;;;;;;15.74;100.00;101857.66;4903096;29;20056;-76
2023/10/02 05:23:56;;;;;;;29.38;13.82;;;;;;;15.71;100.00;101861.19;4863382;29;20429;-76
2023/10/02 05:26:32;;;;;;;28.02;13.27;;;;;;;15.70;100.00;101847.88;4890254;29;20048;-78
2023/10/02 05:29:03;;;;;;;31.45;16.75;;;;;;;15.68;100.00;101858.50;4845301;29;20049;-77
2023/10/02 05:31:41;;;;;;;23.83;12.95;;;;;;;15.66;100.00;101854.97;4873818;29;20043;-77
2023/10/02 05:34:13;;;;;;;28.65;13.50;;;;;;;15.64;100.00;101859.41;4892082;29;20047;-77
2023/10/02 05:37:11;;;;;;;24.45;12.73;;;;;;;15.63;100.00;101857.63;4889185;29;20052;-77
2023/10/02 05:39:40;;;;;;;24.92;13.48;;;;;;;15.64;100.00;101855.88;4869490;29;20041;-77
2023/10/02 05:42:16;;;;;;;28.65;14.00;;;;;;;15.63;100.00;101864.72;4895017;29;20067;-77
2023/10/02 05:44:44;;;;;;;25.08;13.80;;;;;;;15.62;100.00;101855.00;4855952;29;20055;-77
2023/10/02 05:47:15;;;;;;;25.17;13.00;;;;;;;15.62;100.00;101855.00;4907004;29;20056;-77
2023/10/02 05:49:48;;;;;;;26.95;14.05;;;;;;;15.60;100.00;101860.31;4888578;29;20056;-78
2023/10/02 05:52:19;;;;;;;27.75;14.00;;;;;;;15.60;100.00;101862.97;4880487;29;20420;-78
2023/10/02 05:54:47;;;;;;;24.63;13.88;;;;;;;15.59;100.00;101864.75;4879754;29;20048;-77
2023/10/02 05:57:17;;;;;;;25.92;12.95;;;;;;;15.60;100.00;101877.13;4898888;29;20145;-77
2023/10/02 05:59:48;;;;;;;27.55;14.82;;;;;;;15.61;100.00;101880.66;4826359;29;20057;-77
2023/10/02 06:02:22;;;;;;;31.15;14.10;;;;;;;15.64;100.00;101879.78;4892157;29;20052;-78
2023/10/02 06:04:52;;;;;;;24.77;12.77;;;;;;;15.67;100.00;101882.41;4905803;29;20069;-77
2023/10/02 06:07:43;;;;;;;28.90;13.95;;;;;;;15.67;100.00;101879.75;4871605;29;20441;-77
2023/10/02 06:10:27;;;;;;;27.20;13.75;;;;;;;15.70;100.00;101891.28;4864904;29;20041;-77
2023/10/02 06:13:05;;;;;;;27.33;13.57;;;;;;;15.73;100.00;101891.31;4855805;29;20497;-77
2023/10/02 06:15:43;;;;;;;32.08;13.68;;;;;;;15.78;100.00;101891.28;4824187;29;20413;-77
2023/10/02 06:18:10;;;;;;;26.75;13.60;;;;;;;15.81;100.00;101899.28;4898704;29;20508;-77
2023/10/02 06:20:57;;;;;;;26.48;13.20;;;;;;;15.83;100.00;101905.47;4890048;29;20044;-77
2023/10/02 06:23:25;;;;;;;29.10;14.35;;;;;;;15.86;100.00;101902.81;4886568;29;20040;-77
2023/10/02 06:25:52;;;;;;;28.50;13.90;;;;;;;15.89;100.00;101896.59;4891181;29;20072;-77
2023/10/02 06:28:25;;;;;;;28.38;13.52;;;;;;;15.91;100.00;101908.09;4864873;29;20057;-77
2023/10/02 06:30:57;;;;;;;26.10;13.60;;;;;;;15.93;100.00;101909.00;4828104;29;20056;-78
2023/10/02 06:33:24;;;;;;;28.90;13.82;;;;;;;15.96;100.00;101901.91;4893769;29;20067;-78
2023/10/02 06:36:00;;;;;;;23.98;13.23;;;;;;;15.98;100.00;101908.09;4864690;29;20037;-77
2023/10/02 06:38:30;;;;;;;24.58;13.30;;;;;;;16.00;100.00;101904.56;4877522;29;20068;-78
2023/10/02 06:40:59;;;;;;;22.98;12.95;;;;;;;16.02;100.00;101908.09;4902604;29;20422;-79
2023/10/02 06:43:32;;;;;;;23.70;13.10;;;;;;;16.05;100.00;101905.41;4865062;29;20045;-78
2023/10/02 06:46:13;;;;;;;27.58;13.02;;;;;;;16.06;100.00;101904.53;4891797;29;20052;-78
2023/10/02 06:48:46;;;;;;;33.08;14.82;;;;;;;16.07;100.00;101903.66;4879841;29;20048;-78
2023/10/02 06:51:14;;;;;;;24.85;13.70;;;;;;;16.09;100.00;101907.19;4861488;29;20184;-78
2023/10/02 06:53:43;;;;;;;24.65;12.80;;;;;;;16.11;100.00;101906.28;4882955;29;20041;-78
2023/10/02 06:56:13;;;;;;;25.58;13.10;;;;;;;16.13;100.00;101911.63;4903658;29;20511;-77
2023/10/02 06:58:53;;;;;;;23.83;13.23;;;;;;;16.16;100.00;101914.25;4867894;29;20087;-78
2023/10/02 07:01:26;;;;;;;25.42;14.73;;;;;;;16.20;100.00;101920.44;4882056;29;20091;-78
2023/10/02 07:03:56;;;;;;;25.50;12.73;;;;;;;16.25;100.00;101916.00;4833669;29;20060;-77
2023/10/02 07:06:24;;;;;;;26.67;14.13;;;;;;;16.27;100.00;101920.41;4894229;29;20053;-77
2023/10/02 07:11:53;;;;;;;;;;;;;;;16.36;100.00;101917.72;4874623;29;20057;-78
2023/10/02 07:14:23;;;;;;;25.63;13.50;;;;;;;16.41;100.00;101922.13;4897638;29;19927;-78
2023/10/02 07:17:08;;;;;;;22.80;14.10;;;;;;;16.45;100.00;101924.78;4894427;29;20056;-77
2023/10/02 07:19:38;;;;;;;29.77;14.30;;;;;;;16.51;100.00;101922.09;4840209;29;20048;-77
2023/10/02 07:22:16;;;;;;;25.92;13.43;;;;;;;16.59;100.00;101913.22;4855046;29;20419;-78
2023/10/02 07:24:46;;;;;;;22.90;13.57;;;;;;;16.68;100.00;101905.19;4870493;29;20075;-77
2023/10/02 07:27:23;;;;;;;27.17;14.25;;;;;;;16.79;100.00;101915.78;4873934;29;20055;-77
2023/10/02 07:29:53;;;;;;;24.02;12.93;;;;;;;16.92;100.00;101917.50;4882124;29;20412;-77
2023/10/02 07:32:29;;;;;;;25.88;13.02;;;;;;;17.02;100.00;101913.00;4891184;29;20044;-78
2023/10/02 07:35:10;;;;;;;24.65;13.45;;;;;;;17.10;100.00;101920.03;4849228;29;20045;-77
2023/10/02 07:37:38;;;;;;;25.65;13.57;;;;;;;17.27;100.00;101914.56;4883595;29;20424;-78
2023/10/02 07:40:06;;;;;;;21.27;11.73;;;;;;;17.45;100.00;101913.56;4870721;29;20068;-77
2023/10/02 07:42:33;;;;;;;22.52;12.00;;;;;;;17.60;100.00;101912.56;4889046;29;20056;-78
2023/10/02 07:45:21;;;;;;;22.80;12.50;;;;;;;17.76;100.00;101915.94;4894894;29;20041;-76
2023/10/02 07:50:38;;;;;;;22.00;11.38;;;;;;;18.04;100.00;101911.25;4847585;29;20049;-77
2023/10/02 07:53:06;;;;;;;24.23;11.57;;;;;;;18.10;100.00;101912.97;4886724;29;20064;-77
2023/10/02 07:55:47;;;;;;;21.42;11.23;;;;;;;18.18;100.00;101919.06;4875767;29;20051;-77
2023/10/02 07:58:19;;;;;;;20.38;12.32;;;;;;;18.35;100.00;101916.22;4890174;29;20057;-77
2023/10/02 08:00:49;;;;;;;20.63;11.02;;;;;;;18.49;100.00;101916.06;4881119;29;20052;-76
2023/10/02 08:03:36;;;;;;;;;;;;;;;18.57;100.00;101919.50;4872515;29;20424;-77
2023/10/02 08:06:20;;;;;;;24.63;11.77;;;;;;;18.67;100.00;101915.78;4846911;29;20388;-78
2023/10/02 08:11:37;;;;;;;20.02;11.35;;;;;;;18.88;100.00;101908.44;4877227;29;23274;-78
2023/10/02 08:14:06;;;;;;;27.10;12.63;;;;;;;18.96;100.00;101914.56;4901216;29;20047;-77
2023/10/02 08:16:58;;;;;;;22.17;11.77;;;;;;;19.02;100.00;101914.47;4892154;29;20052;-77
2023/10/02 08:19:21;;;;;;;21.13;11.48;;;;;;;19.11;100.00;101910.78;4886009;29;20045;-77
2023/10/02 08:21:48;;;;;;;23.25;11.85;;;;;;;19.23;100.00;101909.69;4874865;29;20063;-78
2023/10/02 08:24:16;;;;;;;23.45;12.57;;;;;;;19.27;100.00;101906.06;4875548;29;20506;-78
2023/10/02 08:26:47;;;;;;;22.52;11.20;;;;;;;19.26;100.00;101912.31;4869730;29;20408;-78
2023/10/02 08:29:16;;;;;;;26.83;11.73;;;;;;;19.28;100.00;101922.06;4855402;29;20045;-77
2023/10/02 08:31:45;;;;;;;23.63;12.05;;;;;;;19.35;100.00;101913.94;4884848;29;20522;-78
2023/10/02 08:34:19;;;;;;;21.67;11.87;;;;;;;19.36;100.00;101907.72;4865432;29;20055;-78
2023/10/02 08:37:12;;;;;;;26.52;12.90;;;;;;;19.41;100.00;101906.72;4848709;29;20048;-79
2023/10/02 08:39:41;;;;;;;27.33;11.88;;;;;;;19.44;100.00;101919.16;4885983;29;20508;-79
2023/10/02 08:42:11;;;;;;;23.50;11.40;;;;;;;19.51;100.00;101910.13;4879484;29;20133;-78
2023/10/02 08:44:41;;;;;;;24.52;11.68;;;;;;;19.60;100.00;101912.63;4890131;29;20052;-78
2023/10/02 08:47:12;;;;;;;23.52;12.15;;;;;;;19.69;100.00;101916.94;4883460;29;20051;-79
2023/10/02 08:49:41;;;;;;;20.25;11.70;;;;;;;19.73;100.00;101913.31;4884338;29;20064;-78
2023/10/02 08:52:12;;;;;;;26.75;12.23;;;;;;;19.79;100.00;101915.91;4853697;29;20638;-78
2023/10/02 08:54:41;;;;;;;22.30;11.70;;;;;;;19.83;100.00;101917.59;4904150;29;20052;-78
2023/10/02 08:57:09;;;;;;;22.52;12.30;;;;;;;19.90;100.00;101917.47;4885271;29;20504;-79
2023/10/02 08:59:40;;;;;;;29.52;12.68;;;;;;;19.91;100.00;101909.44;4872649;29;20060;-78
2023/10/02 09:02:16;;;;;;;24.75;12.45;;;;;;;19.96;100.00;101906.66;4901607;29;20048;-78
2023/10/02 09:04:53;;;;;;;22.80;11.18;;;;;;;20.01;100.00;101916.34;4884167;29;20053;-78
2023/10/02 09:07:23;;;;;;;25.13;12.38;;;;;;;20.03;100.00;101903.81;4858558;29;20049;-78
2023/10/02 09:10:12;;;;;;;23.77;13.02;;;;;;;19.98;100.00;101920.88;4890888;29;20052;-78
2023/10/02 09:12:50;;;;;;;27.48;12.00;;;;;;;19.86;100.00;101925.56;4905936;29;20056;-78
2023/10/02 09:15:29;;;;;;;23.10;11.80;;;;;;;19.75;100.00;101918.63;4859831;29;20059;-78
2023/10/02 09:18:17;;;;;;;22.90;11.85;;;;;;;19.65;100.00;101917.91;4887888;29;20053;-78
2023/10/02 09:21:04;;;;;;;27.05;13.35;;;;;;;19.55;100.00;101910.97;4867236;29;20052;-79
2023/10/02 09:23:32;;;;;;;31.20;13.98;;;;;;;19.47;100.00;101914.63;4827503;29;20753;-77
2023/10/02 09:26:16;;;;;;;27.42;13.20;;;;;;;19.46;100.00;101918.19;4861905;29;20055;-78
2023/10/02 09:28:56;;;;;;;24.15;13.30;;;;;;;19.51;100.00;101914.56;4874339;29;20049;-77
2023/10/02 09:31:26;;;;;;;32.88;14.10;;;;;;;19.62;100.00;101901.91;4855209;29;20500;-77
2023/10/02 09:33:55;;;;;;;30.33;12.65;;;;;;;19.73;100.00;101899.94;4843760;29;20060;-77
2023/10/02 09:36:52;;;;;;;24.48;12.20;;;;;;;19.82;100.00;101889.06;4853050;29;20874;-77
2023/10/02 09:39:40;;;;;;;26.00;13.18;;;;;;;19.93;100.00;101906.72;4816852;29;20060;-77
2023/10/02 09:42:07;;;;;;;25.45;13.50;;;;;;;19.98;100.00;101912.84;4869511;29;20084;-77
2023/10/02 09:44:45;;;;;;;22.33;11.57;;;;;;;20.04;100.00;101899.38;4863118;29;20056;-77
2023/10/02 09:47:20;;;;;;;24.00;12.50;;;;;;;20.04;100.00;101889.56;4861103;29;20049;-77
2023/10/02 09:50:25;;;;;;;24.63;12.38;;;;;;;20.04;100.00;101886.00;4855185;29;20056;-77
2023/10/02 09:52:59;;;;;;;27.73;14.10;;;;;;;20.06;100.00;101886.84;4852912;29;20408;-77
2023/10/02 09:55:47;;;;;;;29.15;13.18;;;;;;;20.13;100.00;101883.16;4813490;29;20045;-79
2023/10/02 09:58:54;;;;;;;27.17;13.23;;;;;;;20.20;100.00;101875.88;4852310;29;20049;-77
2023/10/02 10:03:59;;;;;;;29.80;12.65;;;;;;;20.17;100.00;101879.50;4867965;29;20052;-78
2023/10/02 10:06:41;;;;;;;25.25;12.40;;;;;;;20.20;100.00;101884.75;4859406;29;20748;-79
2023/10/02 10:11:45;;;;;;;24.52;12.65;;;;;;;20.39;100.00;101890.63;4840844;29;20450;-78
2023/10/02 10:14:36;;;;;;;23.13;12.00;;;;;;;20.44;100.00;101887.84;4871835;29;20049;-78
2023/10/02 10:17:15;;;;;;;26.23;13.20;;;;;;;20.39;100.00;101887.06;4865321;29;20048;-78
2023/10/02 10:20:18;;;;;;;25.90;11.95;;;;;;;20.36;100.00;101879.09;4850940;29;20860;-78
2023/10/02 10:22:56;;;;;;;24.98;12.63;;;;;;;20.32;100.00;101883.66;4858221;29;20064;-78
2023/10/02 10:25:33;;;;;;;27.65;12.95;;;;;;;20.32;100.00;101877.41;4844419;29;20063;-79
2023/10/02 10:28:05;;;;;;;30.85;14.15;;;;;;;20.38;100.00;101862.09;4872396;29;20048;-78
2023/10/02 10:35:38;;;;;;;29.10;13.95;;;;;;;20.73;100.00;101857.78;4866765;29;20048;-78
2023/10/02 10:38:36;;;;;;;25.63;15.90;;;;;;;20.75;100.00;101853.25;4857977;29;20048;-78
2023/10/02 10:41:09;;;;;;;24.65;11.73;;;;;;;20.75;100.00;101853.25;4831640;29;20053;-78
2023/10/02 10:43:55;;;;;;;28.17;13.98;;;;;;;20.76;100.00;101855.03;4869305;29;20053;-78
2023/10/02 10:46:28;;;;;;;27.15;12.77;;;;;;;20.79;100.00;101846.03;4855077;29;20052;-77
2023/10/02 10:49:23;;;;;;;28.00;12.85;;;;;;;20.88;100.00;101859.22;4862980;29;20048;-78
2023/10/02 10:51:52;;;;;;;23.90;12.63;;;;;;;21.00;100.00;101848.22;4869730;29;20060;-78
2023/10/02 10:54:30;;;;;;;27.20;13.43;;;;;;;21.07;100.00;101854.28;4873009;29;20084;-78
2023/10/02 10:57:27;;;;;;;23.05;11.50;;;;;;;21.10;100.00;101853.34;4824301;29;20064;-78
2023/10/02 11:03:19;;;;;;;23.95;11.70;;;;;;;21.29;100.00;101851.97;4856693;29;20053;-79
2023/10/02 11:05:48;;;;;;;20.92;10.50;;;;;;;21.33;100.00;101856.31;4870372;29;20519;-78
2023/10/02 11:08:25;;;;;;;21.80;10.75;;;;;;;21.35;100.00;101861.66;4886252;29;20049;-77
2023/10/02 11:11:21;;;;;;;25.63;11.75;;;;;;;21.33;100.00;101858.13;4855533;29;20060;-77
2023/10/02 11:13:51;;;;;;;18.75;10.20;;;;;;;21.32;100.00;101857.25;4858189;29;20500;-77
2023/10/02 11:16:31;;;;;;;23.25;10.52;;;;;;;21.27;100.00;101861.84;4856445;29;20048;-78
2023/10/02 11:22:16;;;;;;;20.85;11.00;;;;;;;21.13;100.00;101858.63;4875626;29;20389;-79
2023/10/02 11:24:55;;;;;;;27.35;11.57;;;;;;;21.11;100.00;101864.00;4871875;29;20056;-79
2023/10/02 11:27:24;;;;;;;25.50;11.63;;;;;;;21.10;100.00;101869.44;4835053;29;20437;-79
2023/10/02 11:30:02;;;;;;;23.02;10.77;;;;;;;21.10;100.00;101872.97;4873288;29;20056;-79
2023/10/02 11:32:48;;;;;;;24.63;11.93;;;;;;;21.06;100.00;101876.66;4867038;29;20067;-79
2023/10/02 11:35:16;;;;;;;22.52;10.65;;;;;;;21.02;100.00;101873.19;4881082;29;20051;-77
2023/10/02 11:37:48;;;;;;;26.00;11.52;;;;;;;20.97;100.00;101883.13;4875775;29;20105;-78
2023/10/02 11:40:16;;;;;;;24.38;11.68;;;;;;;20.99;100.00;101880.41;4878120;29;20049;-78
2023/10/02 11:42:43;;;;;;;22.83;10.63;;;;;;;21.03;100.00;101882.09;4833826;29;20488;-78
2023/10/02 11:45:11;;;;;;;25.73;11.63;;;;;;;21.10;100.00;101870.31;4884217;29;20045;-80
2023/10/02 11:47:39;;;;;;;21.40;11.85;;;;;;;21.16;100.00;101862.09;4888777;29;20622;-79
2023/10/02 11:50:07;;;;;;;22.95;10.80;;;;;;;21.20;100.00;101865.59;4882706;29;20048;-79
2023/10/02 11:52:35;;;;;;;19.48;9.75;;;;;;;21.27;100.00;101859.16;4894513;29;20512;-77
2023/10/02 11:55:02;;;;;;;21.33;10.55;;;;;;;21.37;100.00;101859.81;4891724;29;20082;-80
2023/10/02 11:57:30;;;;;;;21.70;11.25;;;;;;;21.42;100.00;101853.41;4854162;29;20412;-79
2023/10/02 11:59:57;;;;;;;24.20;11.82;;;;;;;21.44;100.00;101848.03;4871039;29;20045;-79
2023/10/02 12:02:25;;;;;;;26.42;11.82;;;;;;;21.46;100.00;101842.63;4890515;29;20040;-78
2023/10/02 12:04:53;;;;;;;23.65;11.40;;;;;;;21.50;100.00;101844.31;4860873;29;20056;-77
2023/10/02 12:07:21;;;;;;;23.15;11.85;;;;;;;21.54;100.00;101848.66;4884366;29;20059;-77
2023/10/02 12:09:49;;;;;;;26.77;12.10;;;;;;;21.56;100.00;101845.00;4863284;29;20405;-78
2023/10/02 12:12:16;;;;;;;24.63;12.98;;;;;;;21.56;100.00;101854.88;4882166;29;20043;-77
2023/10/02 12:14:43;;;;;;;25.40;14.63;;;;;;;21.54;100.00;101845.97;4842165;29;20056;-77
2023/10/02 12:17:14;;;;;;;25.00;14.18;;;;;;;21.55;100.00;101847.72;4892419;29;20416;-78
2023/10/02 12:19:44;;;;;;;29.00;14.95;;;;;;;21.53;100.00;101849.56;4842948;29;20056;-78
2023/10/02 12:22:12;;;;;;;24.90;13.40;;;;;;;21.50;100.00;101850.56;4873975;29;20500;-78